sensor_id;sensor_type;location;lat;lon;timestamp;P1;durP1;ratioP1;P2;durP2;ratioP2
20966;SDS011;10642;50.682;18.510;2022-10-20T00:01:15;15.30;;;8.23;;
20966;SDS011;10642;50.682;18.510;2022-10-20T00:03:43;15.97;;;7.00;;
20966;SDS011;10642;50.682;18.510;2022-10-20T00:06:12;15.43;;;7.40;;
20966;SDS011;10642;50.682;18.510;2022-10-20T00:08:39;14.53;;;6.97;;
20966;SDS011;10642;50.682;18.510;2022-10-20T00:11:07;15.20;;;6.63;;
20966;SDS011;10642;50.682;18.510;2022-10-20T00:13:34;14.83;;;7.80;;
20966;SDS011;10642;50.682;18.510;2022-10-20T00:16:01;14.53;;;6.63;;
20966;SDS011;10642;50.682;18.510;2022-10-20T00:18:28;12.33;;;6.00;;
20966;SDS011;10642;50.682;18.510;2022-10-20T00:20:55;14.37;;;6.50;;
20966;SDS011;10642;50.682;18.510;2022-10-20T00:23:21;13.40;;;6.70;;
20966;SDS011;10642;50.682;18.510;2022-10-20T00:25:48;13.33;;;6.00;;
20966;SDS011;10642;50.682;18.510;2022-10-20T00:28:25;11.90;;;5.70;;
20966;SDS011;10642;50.682;18.510;2022-10-20T00:30:55;11.03;;;5.83;;
20966;SDS011;10642;50.682;18.510;2022-10-20T00:33:22;12.20;;;5.43;;
20966;SDS011;10642;50.682;18.510;2022-10-20T00:35:49;12.70;;;6.17;;
20966;SDS011;10642;50.682;18.510;2022-10-20T00:38:16;10.13;;;5.33;;
20966;SDS011;10642;50.682;18.510;2022-10-20T00:40:48;10.77;;;5.13;;
20966;SDS011;10642;50.682;18.510;2022-10-20T00:43:15;14.10;;;5.20;;
20966;SDS011;10642;50.682;18.510;2022-10-20T00:45:44;11.93;;;5.40;;
20966;SDS011;10642;50.682;18.510;2022-10-20T00:48:13;7.90;;;4.40;;
20966;SDS011;10642;50.682;18.510;2022-10-20T00:50:42;7.60;;;4.30;;
20966;SDS011;10642;50.682;18.510;2022-10-20T00:53:10;8.17;;;4.73;;
20966;SDS011;10642;50.682;18.510;2022-10-20T00:55:38;9.23;;;4.90;;
20966;SDS011;10642;50.682;18.510;2022-10-20T00:58:06;9.73;;;5.03;;
20966;SDS011;10642;50.682;18.510;2022-10-20T01:00:33;8.90;;;5.00;;
20966;SDS011;10642;50.682;18.510;2022-10-20T01:03:03;9.23;;;5.00;;
20966;SDS011;10642;50.682;18.510;2022-10-20T01:05:31;10.30;;;5.10;;
20966;SDS011;10642;50.682;18.510;2022-10-20T01:07:58;14.90;;;5.73;;
20966;SDS011;10642;50.682;18.510;2022-10-20T01:10:27;11.03;;;5.00;;
20966;SDS011;10642;50.682;18.510;2022-10-20T01:15:34;11.83;;;5.43;;
20966;SDS011;10642;50.682;18.510;2022-10-20T01:18:07;11.77;;;5.70;;
20966;SDS011;10642;50.682;18.510;2022-10-20T01:28:48;12.50;;;5.73;;
20966;SDS011;10642;50.682;18.510;2022-10-20T01:31:41;10.67;;;5.83;;
20966;SDS011;10642;50.682;18.510;2022-10-20T01:36:50;12.03;;;6.50;;
20966;SDS011;10642;50.682;18.510;2022-10-20T01:39:23;11.10;;;5.73;;
20966;SDS011;10642;50.682;18.510;2022-10-20T01:41:53;9.27;;;5.00;;
20966;SDS011;10642;50.682;18.510;2022-10-20T01:44:22;9.27;;;5.33;;
20966;SDS011;10642;50.682;18.510;2022-10-20T01:46:50;11.20;;;5.90;;
20966;SDS011;10642;50.682;18.510;2022-10-20T01:49:18;11.07;;;5.73;;
20966;SDS011;10642;50.682;18.510;2022-10-20T01:51:45;7.63;;;4.80;;
20966;SDS011;10642;50.682;18.510;2022-10-20T01:54:21;9.33;;;4.50;;
20966;SDS011;10642;50.682;18.510;2022-10-20T02:02:06;8.20;;;4.67;;
20966;SDS011;10642;50.682;18.510;2022-10-20T02:04:43;7.60;;;4.57;;
20966;SDS011;10642;50.682;18.510;2022-10-20T02:07:22;9.83;;;5.20;;
20966;SDS011;10642;50.682;18.510;2022-10-20T02:09:52;11.07;;;5.50;;
20966;SDS011;10642;50.682;18.510;2022-10-20T02:12:21;10.47;;;4.97;;
20966;SDS011;10642;50.682;18.510;2022-10-20T02:14:51;8.93;;;4.40;;
20966;SDS011;10642;50.682;18.510;2022-10-20T02:17:18;8.60;;;4.97;;
20966;SDS011;10642;50.682;18.510;2022-10-20T02:19:45;13.40;;;5.50;;
20966;SDS011;10642;50.682;18.510;2022-10-20T02:22:14;9.50;;;4.77;;
20966;SDS011;10642;50.682;18.510;2022-10-20T02:24:42;6.70;;;4.17;;
20966;SDS011;10642;50.682;18.510;2022-10-20T02:27:11;9.60;;;4.83;;
20966;SDS011;10642;50.682;18.510;2022-10-20T02:29:41;9.17;;;5.10;;
20966;SDS011;10642;50.682;18.510;2022-10-20T02:32:08;6.07;;;3.60;;
20966;SDS011;10642;50.682;18.510;2022-10-20T02:34:36;6.53;;;3.80;;
20966;SDS011;10642;50.682;18.510;2022-10-20T02:37:08;8.37;;;4.27;;
20966;SDS011;10642;50.682;18.510;2022-10-20T02:39:35;9.03;;;4.63;;
20966;SDS011;10642;50.682;18.510;2022-10-20T02:42:02;6.83;;;3.93;;
20966;SDS011;10642;50.682;18.510;2022-10-20T02:44:29;8.00;;;4.03;;
20966;SDS011;10642;50.682;18.510;2022-10-20T02:46:56;8.37;;;3.67;;
20966;SDS011;10642;50.682;18.510;2022-10-20T02:49:23;6.47;;;4.33;;
20966;SDS011;10642;50.682;18.510;2022-10-20T02:51:50;10.90;;;3.87;;
20966;SDS011;10642;50.682;18.510;2022-10-20T02:54:17;9.47;;;4.33;;
20966;SDS011;10642;50.682;18.510;2022-10-20T02:56:44;8.03;;;3.87;;
20966;SDS011;10642;50.682;18.510;2022-10-20T02:59:12;7.80;;;4.30;;
20966;SDS011;10642;50.682;18.510;2022-10-20T03:01:39;6.37;;;4.20;;
20966;SDS011;10642;50.682;18.510;2022-10-20T03:04:06;8.07;;;4.83;;
20966;SDS011;10642;50.682;18.510;2022-10-20T03:06:33;11.67;;;4.73;;
20966;SDS011;10642;50.682;18.510;2022-10-20T03:09:00;7.77;;;4.23;;
20966;SDS011;10642;50.682;18.510;2022-10-20T03:11:28;9.70;;;4.73;;
20966;SDS011;10642;50.682;18.510;2022-10-20T03:13:55;9.77;;;5.00;;
20966;SDS011;10642;50.682;18.510;2022-10-20T03:16:21;7.47;;;4.37;;
20966;SDS011;10642;50.682;18.510;2022-10-20T03:18:48;9.13;;;3.97;;
20966;SDS011;10642;50.682;18.510;2022-10-20T03:21:15;11.73;;;4.60;;
20966;SDS011;10642;50.682;18.510;2022-10-20T03:23:42;10.20;;;4.27;;
20966;SDS011;10642;50.682;18.510;2022-10-20T03:26:09;9.03;;;4.40;;
20966;SDS011;10642;50.682;18.510;2022-10-20T03:28:37;9.20;;;5.13;;
20966;SDS011;10642;50.682;18.510;2022-10-20T03:31:04;8.30;;;4.20;;
20966;SDS011;10642;50.682;18.510;2022-10-20T03:33:31;41.47;;;21.23;;
20966;SDS011;10642;50.682;18.510;2022-10-20T03:35:58;13.80;;;7.03;;
20966;SDS011;10642;50.682;18.510;2022-10-20T03:38:25;7.30;;;3.83;;
20966;SDS011;10642;50.682;18.510;2022-10-20T03:40:52;8.07;;;4.63;;
20966;SDS011;10642;50.682;18.510;2022-10-20T03:43:18;8.87;;;4.43;;
20966;SDS011;10642;50.682;18.510;2022-10-20T03:45:45;12.87;;;4.07;;
20966;SDS011;10642;50.682;18.510;2022-10-20T03:48:12;15.60;;;8.43;;
20966;SDS011;10642;50.682;18.510;2022-10-20T03:50:40;13.70;;;6.67;;
20966;SDS011;10642;50.682;18.510;2022-10-20T03:53:07;14.37;;;6.10;;
20966;SDS011;10642;50.682;18.510;2022-10-20T03:55:34;11.00;;;6.53;;
20966;SDS011;10642;50.682;18.510;2022-10-20T03:58:02;10.43;;;5.80;;
20966;SDS011;10642;50.682;18.510;2022-10-20T04:00:29;15.20;;;5.33;;
20966;SDS011;10642;50.682;18.510;2022-10-20T04:02:56;9.87;;;5.43;;
20966;SDS011;10642;50.682;18.510;2022-10-20T04:05:23;10.53;;;4.47;;
20966;SDS011;10642;50.682;18.510;2022-10-20T04:07:50;10.70;;;4.47;;
20966;SDS011;10642;50.682;18.510;2022-10-20T04:10:16;13.63;;;4.23;;
20966;SDS011;10642;50.682;18.510;2022-10-20T04:12:43;8.13;;;4.43;;
20966;SDS011;10642;50.682;18.510;2022-10-20T04:15:10;10.20;;;4.90;;
20966;SDS011;10642;50.682;18.510;2022-10-20T04:17:37;8.37;;;4.63;;
20966;SDS011;10642;50.682;18.510;2022-10-20T04:20:05;9.50;;;5.77;;
20966;SDS011;10642;50.682;18.510;2022-10-20T04:22:32;9.23;;;4.70;;
20966;SDS011;10642;50.682;18.510;2022-10-20T04:25:00;11.67;;;4.67;;
20966;SDS011;10642;50.682;18.510;2022-10-20T04:27:27;9.60;;;4.33;;
20966;SDS011;10642;50.682;18.510;2022-10-20T04:29:54;7.53;;;4.37;;
20966;SDS011;10642;50.682;18.510;2022-10-20T04:32:20;7.53;;;4.00;;
20966;SDS011;10642;50.682;18.510;2022-10-20T04:34:47;26.00;;;8.57;;
20966;SDS011;10642;50.682;18.510;2022-10-20T04:37:14;27.57;;;9.67;;
20966;SDS011;10642;50.682;18.510;2022-10-20T04:39:41;10.57;;;4.33;;
20966;SDS011;10642;50.682;18.510;2022-10-20T04:42:08;9.60;;;3.97;;
20966;SDS011;10642;50.682;18.510;2022-10-20T04:44:35;7.03;;;4.13;;
20966;SDS011;10642;50.682;18.510;2022-10-20T04:47:02;8.30;;;3.63;;
20966;SDS011;10642;50.682;18.510;2022-10-20T04:49:29;8.03;;;4.20;;
20966;SDS011;10642;50.682;18.510;2022-10-20T04:51:55;11.90;;;4.53;;
20966;SDS011;10642;50.682;18.510;2022-10-20T04:54:26;9.87;;;4.97;;
20966;SDS011;10642;50.682;18.510;2022-10-20T04:56:53;10.57;;;4.10;;
20966;SDS011;10642;50.682;18.510;2022-10-20T04:59:20;7.57;;;4.57;;
20966;SDS011;10642;50.682;18.510;2022-10-20T05:01:47;12.33;;;5.40;;
20966;SDS011;10642;50.682;18.510;2022-10-20T05:04:14;11.73;;;6.40;;
20966;SDS011;10642;50.682;18.510;2022-10-20T05:06:47;12.87;;;7.70;;
20966;SDS011;10642;50.682;18.510;2022-10-20T05:09:15;14.50;;;8.30;;
20966;SDS011;10642;50.682;18.510;2022-10-20T05:11:42;12.50;;;7.30;;
20966;SDS011;10642;50.682;18.510;2022-10-20T05:14:09;11.47;;;7.13;;
20966;SDS011;10642;50.682;18.510;2022-10-20T05:16:36;13.87;;;7.43;;
20966;SDS011;10642;50.682;18.510;2022-10-20T05:19:03;11.17;;;6.37;;
20966;SDS011;10642;50.682;18.510;2022-10-20T05:21:30;10.87;;;5.70;;
20966;SDS011;10642;50.682;18.510;2022-10-20T05:24:01;11.10;;;6.43;;
20966;SDS011;10642;50.682;18.510;2022-10-20T05:26:29;14.77;;;7.47;;
20966;SDS011;10642;50.682;18.510;2022-10-20T05:29:03;13.23;;;6.23;;
20966;SDS011;10642;50.682;18.510;2022-10-20T05:31:30;13.43;;;6.77;;
20966;SDS011;10642;50.682;18.510;2022-10-20T05:33:56;10.80;;;6.50;;
20966;SDS011;10642;50.682;18.510;2022-10-20T05:36:24;10.63;;;6.13;;
20966;SDS011;10642;50.682;18.510;2022-10-20T05:38:52;9.80;;;6.00;;
20966;SDS011;10642;50.682;18.510;2022-10-20T05:41:23;15.50;;;6.60;;
20966;SDS011;10642;50.682;18.510;2022-10-20T05:43:54;15.30;;;7.00;;
20966;SDS011;10642;50.682;18.510;2022-10-20T05:46:23;11.00;;;6.67;;
20966;SDS011;10642;50.682;18.510;2022-10-20T05:48:54;14.47;;;6.87;;
20966;SDS011;10642;50.682;18.510;2022-10-20T05:51:23;11.50;;;7.17;;
20966;SDS011;10642;50.682;18.510;2022-10-20T05:53:50;13.37;;;7.53;;
20966;SDS011;10642;50.682;18.510;2022-10-20T05:56:18;12.80;;;8.60;;
20966;SDS011;10642;50.682;18.510;2022-10-20T05:58:45;12.50;;;7.57;;
20966;SDS011;10642;50.682;18.510;2022-10-20T06:01:17;14.93;;;7.97;;
20966;SDS011;10642;50.682;18.510;2022-10-20T06:03:55;15.27;;;7.80;;
20966;SDS011;10642;50.682;18.510;2022-10-20T06:06:24;14.23;;;7.60;;
20966;SDS011;10642;50.682;18.510;2022-10-20T06:08:51;15.23;;;8.87;;
20966;SDS011;10642;50.682;18.510;2022-10-20T06:11:19;13.53;;;7.70;;
20966;SDS011;10642;50.682;18.510;2022-10-20T06:13:46;19.70;;;8.30;;
20966;SDS011;10642;50.682;18.510;2022-10-20T06:16:22;16.67;;;7.73;;
20966;SDS011;10642;50.682;18.510;2022-10-20T06:18:49;15.33;;;8.57;;
20966;SDS011;10642;50.682;18.510;2022-10-20T06:21:17;14.43;;;8.33;;
20966;SDS011;10642;50.682;18.510;2022-10-20T06:23:45;15.57;;;9.33;;
20966;SDS011;10642;50.682;18.510;2022-10-20T06:26:15;15.17;;;7.90;;
20966;SDS011;10642;50.682;18.510;2022-10-20T06:28:47;12.77;;;7.93;;
20966;SDS011;10642;50.682;18.510;2022-10-20T06:31:15;14.67;;;8.60;;
20966;SDS011;10642;50.682;18.510;2022-10-20T06:33:43;17.17;;;8.43;;
20966;SDS011;10642;50.682;18.510;2022-10-20T06:36:10;20.17;;;8.83;;
20966;SDS011;10642;50.682;18.510;2022-10-20T06:38:38;16.27;;;10.00;;
20966;SDS011;10642;50.682;18.510;2022-10-20T06:41:07;19.00;;;10.53;;
20966;SDS011;10642;50.682;18.510;2022-10-20T06:43:34;21.57;;;11.80;;
20966;SDS011;10642;50.682;18.510;2022-10-20T06:46:02;18.07;;;10.90;;
20966;SDS011;10642;50.682;18.510;2022-10-20T06:48:30;21.80;;;11.07;;
20966;SDS011;10642;50.682;18.510;2022-10-20T06:50:58;18.17;;;10.43;;
20966;SDS011;10642;50.682;18.510;2022-10-20T06:53:26;23.83;;;10.70;;
20966;SDS011;10642;50.682;18.510;2022-10-20T06:55:54;17.77;;;10.70;;
20966;SDS011;10642;50.682;18.510;2022-10-20T06:58:21;19.23;;;8.87;;
20966;SDS011;10642;50.682;18.510;2022-10-20T07:00:56;13.33;;;8.30;;
20966;SDS011;10642;50.682;18.510;2022-10-20T07:03:23;13.00;;;8.70;;
20966;SDS011;10642;50.682;18.510;2022-10-20T07:05:49;15.87;;;9.23;;
20966;SDS011;10642;50.682;18.510;2022-10-20T07:08:16;16.17;;;8.87;;
20966;SDS011;10642;50.682;18.510;2022-10-20T07:10:43;20.30;;;9.17;;
20966;SDS011;10642;50.682;18.510;2022-10-20T07:13:10;17.10;;;8.47;;
20966;SDS011;10642;50.682;18.510;2022-10-20T07:15:37;14.67;;;8.47;;
20966;SDS011;10642;50.682;18.510;2022-10-20T07:18:04;13.10;;;7.70;;
20966;SDS011;10642;50.682;18.510;2022-10-20T07:20:31;17.87;;;8.17;;
20966;SDS011;10642;50.682;18.510;2022-10-20T07:22:59;15.53;;;7.93;;
20966;SDS011;10642;50.682;18.510;2022-10-20T07:25:25;13.27;;;8.00;;
20966;SDS011;10642;50.682;18.510;2022-10-20T07:27:53;13.37;;;7.50;;
20966;SDS011;10642;50.682;18.510;2022-10-20T07:30:20;14.93;;;7.80;;
20966;SDS011;10642;50.682;18.510;2022-10-20T07:32:47;12.47;;;7.33;;
20966;SDS011;10642;50.682;18.510;2022-10-20T07:35:13;17.83;;;8.83;;
20966;SDS011;10642;50.682;18.510;2022-10-20T07:37:40;14.67;;;8.60;;
20966;SDS011;10642;50.682;18.510;2022-10-20T07:40:07;16.37;;;8.33;;
20966;SDS011;10642;50.682;18.510;2022-10-20T07:42:34;13.03;;;7.93;;
20966;SDS011;10642;50.682;18.510;2022-10-20T07:45:01;13.83;;;7.60;;
20966;SDS011;10642;50.682;18.510;2022-10-20T07:47:28;18.73;;;8.30;;
20966;SDS011;10642;50.682;18.510;2022-10-20T07:50:00;11.53;;;6.40;;
20966;SDS011;10642;50.682;18.510;2022-10-20T07:52:27;13.13;;;7.23;;
20966;SDS011;10642;50.682;18.510;2022-10-20T07:54:57;15.13;;;6.43;;
20966;SDS011;10642;50.682;18.510;2022-10-20T07:57:44;12.77;;;6.30;;
20966;SDS011;10642;50.682;18.510;2022-10-20T08:00:11;11.20;;;5.97;;
20966;SDS011;10642;50.682;18.510;2022-10-20T08:02:38;11.83;;;5.73;;
20966;SDS011;10642;50.682;18.510;2022-10-20T08:05:07;13.47;;;5.43;;
20966;SDS011;10642;50.682;18.510;2022-10-20T08:07:34;9.47;;;5.60;;
20966;SDS011;10642;50.682;18.510;2022-10-20T08:10:01;14.73;;;7.30;;
20966;SDS011;10642;50.682;18.510;2022-10-20T08:12:28;17.93;;;10.13;;
20966;SDS011;10642;50.682;18.510;2022-10-20T08:14:55;12.17;;;5.70;;
20966;SDS011;10642;50.682;18.510;2022-10-20T08:17:21;13.70;;;5.93;;
20966;SDS011;10642;50.682;18.510;2022-10-20T08:20:01;9.47;;;5.20;;
20966;SDS011;10642;50.682;18.510;2022-10-20T08:22:41;10.57;;;4.67;;
20966;SDS011;10642;50.682;18.510;2022-10-20T08:25:10;10.07;;;4.70;;
20966;SDS011;10642;50.682;18.510;2022-10-20T08:27:39;8.67;;;4.43;;
20966;SDS011;10642;50.682;18.510;2022-10-20T08:30:05;7.47;;;2.83;;
20966;SDS011;10642;50.682;18.510;2022-10-20T08:32:50;7.53;;;3.80;;
20966;SDS011;10642;50.682;18.510;2022-10-20T08:35:17;9.00;;;3.03;;
20966;SDS011;10642;50.682;18.510;2022-10-20T08:37:44;5.60;;;2.50;;
20966;SDS011;10642;50.682;18.510;2022-10-20T08:40:29;7.50;;;3.03;;
20966;SDS011;10642;50.682;18.510;2022-10-20T08:42:56;5.63;;;2.50;;
20966;SDS011;10642;50.682;18.510;2022-10-20T08:45:24;7.40;;;2.40;;
20966;SDS011;10642;50.682;18.510;2022-10-20T08:47:52;4.37;;;2.10;;
20966;SDS011;10642;50.682;18.510;2022-10-20T08:50:19;7.27;;;2.67;;
20966;SDS011;10642;50.682;18.510;2022-10-20T08:52:50;4.90;;;2.10;;
20966;SDS011;10642;50.682;18.510;2022-10-20T08:55:27;5.43;;;2.20;;
20966;SDS011;10642;50.682;18.510;2022-10-20T08:58:02;3.10;;;2.03;;
20966;SDS011;10642;50.682;18.510;2022-10-20T09:00:29;4.97;;;2.20;;
20966;SDS011;10642;50.682;18.510;2022-10-20T09:03:39;4.87;;;1.97;;
20966;SDS011;10642;50.682;18.510;2022-10-20T09:05:51;4.33;;;1.83;;
20966;SDS011;10642;50.682;18.510;2022-10-20T09:08:19;6.03;;;1.50;;
20966;SDS011;10642;50.682;18.510;2022-10-20T09:10:47;3.43;;;1.77;;
20966;SDS011;10642;50.682;18.510;2022-10-20T09:13:19;4.80;;;2.10;;
20966;SDS011;10642;50.682;18.510;2022-10-20T09:15:47;8.90;;;1.80;;
20966;SDS011;10642;50.682;18.510;2022-10-20T09:18:14;3.60;;;1.27;;
20966;SDS011;10642;50.682;18.510;2022-10-20T09:20:43;3.50;;;1.53;;
20966;SDS011;10642;50.682;18.510;2022-10-20T09:23:13;3.60;;;1.97;;
20966;SDS011;10642;50.682;18.510;2022-10-20T09:26:01;3.73;;;1.43;;
20966;SDS011;10642;50.682;18.510;2022-10-20T09:28:28;4.83;;;1.40;;
20966;SDS011;10642;50.682;18.510;2022-10-20T09:33:53;4.03;;;1.40;;
20966;SDS011;10642;50.682;18.510;2022-10-20T09:36:20;4.67;;;1.27;;
20966;SDS011;10642;50.682;18.510;2022-10-20T09:38:48;3.50;;;1.70;;
20966;SDS011;10642;50.682;18.510;2022-10-20T09:41:20;4.47;;;1.20;;
20966;SDS011;10642;50.682;18.510;2022-10-20T09:43:59;5.17;;;1.90;;
20966;SDS011;10642;50.682;18.510;2022-10-20T09:46:27;4.30;;;1.30;;
20966;SDS011;10642;50.682;18.510;2022-10-20T09:48:55;3.57;;;1.23;;
20966;SDS011;10642;50.682;18.510;2022-10-20T09:51:26;5.77;;;1.30;;
20966;SDS011;10642;50.682;18.510;2022-10-20T09:54:06;6.70;;;1.80;;
20966;SDS011;10642;50.682;18.510;2022-10-20T09:56:40;4.47;;;1.30;;
20966;SDS011;10642;50.682;18.510;2022-10-20T09:59:18;6.23;;;1.50;;
20966;SDS011;10642;50.682;18.510;2022-10-20T10:01:57;3.00;;;1.20;;
20966;SDS011;10642;50.682;18.510;2022-10-20T10:04:31;4.80;;;1.70;;
20966;SDS011;10642;50.682;18.510;2022-10-20T10:06:59;3.47;;;1.50;;
20966;SDS011;10642;50.682;18.510;2022-10-20T10:09:27;6.10;;;1.83;;
20966;SDS011;10642;50.682;18.510;2022-10-20T10:14:47;3.03;;;1.10;;
20966;SDS011;10642;50.682;18.510;2022-10-20T10:17:34;3.87;;;1.77;;
20966;SDS011;10642;50.682;18.510;2022-10-20T10:20:03;5.87;;;1.50;;
20966;SDS011;10642;50.682;18.510;2022-10-20T10:22:32;6.47;;;1.27;;
20966;SDS011;10642;50.682;18.510;2022-10-20T10:25:01;3.67;;;1.30;;
20966;SDS011;10642;50.682;18.510;2022-10-20T10:27:29;4.87;;;1.50;;
20966;SDS011;10642;50.682;18.510;2022-10-20T10:32:45;4.73;;;1.50;;
20966;SDS011;10642;50.682;18.510;2022-10-20T10:37:40;4.90;;;1.53;;
20966;SDS011;10642;50.682;18.510;2022-10-20T10:40:18;1.50;;;1.17;;
20966;SDS011;10642;50.682;18.510;2022-10-20T10:45:34;2.43;;;1.00;;
20966;SDS011;10642;50.682;18.510;2022-10-20T10:50:36;5.27;;;1.60;;
20966;SDS011;10642;50.682;18.510;2022-10-20T10:58:37;3.90;;;1.73;;
20966;SDS011;10642;50.682;18.510;2022-10-20T11:01:11;5.47;;;1.63;;
20966;SDS011;10642;50.682;18.510;2022-10-20T11:17:03;7.83;;;1.37;;
20966;SDS011;10642;50.682;18.510;2022-10-20T11:19:23;5.43;;;2.10;;
20966;SDS011;10642;50.682;18.510;2022-10-20T11:24:40;4.40;;;2.10;;
20966;SDS011;10642;50.682;18.510;2022-10-20T11:27:10;5.57;;;2.00;;
20966;SDS011;10642;50.682;18.510;2022-10-20T11:29:43;5.50;;;1.90;;
20966;SDS011;10642;50.682;18.510;2022-10-20T11:32:31;9.63;;;3.40;;
20966;SDS011;10642;50.682;18.510;2022-10-20T11:35:06;5.37;;;1.50;;
20966;SDS011;10642;50.682;18.510;2022-10-20T11:37:44;4.00;;;1.70;;
20966;SDS011;10642;50.682;18.510;2022-10-20T11:40:23;3.43;;;1.30;;
20966;SDS011;10642;50.682;18.510;2022-10-20T11:45:37;3.90;;;1.87;;
20966;SDS011;10642;50.682;18.510;2022-10-20T11:50:57;4.37;;;1.97;;
20966;SDS011;10642;50.682;18.510;2022-10-20T11:56:20;12.77;;;4.50;;
20966;SDS011;10642;50.682;18.510;2022-10-20T12:12:08;5.30;;;1.13;;
20966;SDS011;10642;50.682;18.510;2022-10-20T12:14:37;3.20;;;1.13;;
20966;SDS011;10642;50.682;18.510;2022-10-20T12:19:38;2.70;;;1.07;;
20966;SDS011;10642;50.682;18.510;2022-10-20T12:24:42;1.70;;;0.97;;
20966;SDS011;10642;50.682;18.510;2022-10-20T12:39:45;2.50;;;1.57;;
20966;SDS011;10642;50.682;18.510;2022-10-20T12:42:20;3.77;;;1.63;;
20966;SDS011;10642;50.682;18.510;2022-10-20T12:44:48;4.47;;;1.33;;
20966;SDS011;10642;50.682;18.510;2022-10-20T12:52:27;4.83;;;1.43;;
20966;SDS011;10642;50.682;18.510;2022-10-20T12:55:02;6.00;;;1.57;;
20966;SDS011;10642;50.682;18.510;2022-10-20T12:57:31;6.57;;;1.73;;
20966;SDS011;10642;50.682;18.510;2022-10-20T13:00:04;3.17;;;1.60;;
20966;SDS011;10642;50.682;18.510;2022-10-20T13:02:42;4.53;;;1.63;;
20966;SDS011;10642;50.682;18.510;2022-10-20T13:15:30;5.50;;;1.07;;
20966;SDS011;10642;50.682;18.510;2022-10-20T13:18:02;3.23;;;1.20;;
20966;SDS011;10642;50.682;18.510;2022-10-20T13:23:03;3.07;;;1.10;;
20966;SDS011;10642;50.682;18.510;2022-10-20T13:28:04;3.30;;;1.10;;
20966;SDS011;10642;50.682;18.510;2022-10-20T13:30:32;2.97;;;1.30;;
20966;SDS011;10642;50.682;18.510;2022-10-20T13:33:18;3.17;;;1.10;;
20966;SDS011;10642;50.682;18.510;2022-10-20T13:38:43;4.93;;;1.20;;
20966;SDS011;10642;50.682;18.510;2022-10-20T13:51:52;3.20;;;1.67;;
20966;SDS011;10642;50.682;18.510;2022-10-20T13:54:25;4.47;;;2.10;;
20966;SDS011;10642;50.682;18.510;2022-10-20T13:56:53;6.10;;;1.90;;
20966;SDS011;10642;50.682;18.510;2022-10-20T13:59:21;4.90;;;2.10;;
20966;SDS011;10642;50.682;18.510;2022-10-20T14:02:17;4.30;;;1.80;;
20966;SDS011;10642;50.682;18.510;2022-10-20T14:04:40;6.93;;;2.37;;
20966;SDS011;10642;50.682;18.510;2022-10-20T14:07:10;4.57;;;1.93;;
20966;SDS011;10642;50.682;18.510;2022-10-20T14:09:42;3.47;;;1.87;;
20966;SDS011;10642;50.682;18.510;2022-10-20T14:12:21;7.17;;;1.93;;
20966;SDS011;10642;50.682;18.510;2022-10-20T14:14:49;4.17;;;1.73;;
20966;SDS011;10642;50.682;18.510;2022-10-20T14:17:23;6.73;;;1.90;;
20966;SDS011;10642;50.682;18.510;2022-10-20T14:19:50;6.53;;;1.87;;
20966;SDS011;10642;50.682;18.510;2022-10-20T14:22:32;7.27;;;2.17;;
20966;SDS011;10642;50.682;18.510;2022-10-20T14:25:01;4.23;;;1.80;;
20966;SDS011;10642;50.682;18.510;2022-10-20T14:27:31;6.73;;;1.87;;
20966;SDS011;10642;50.682;18.510;2022-10-20T14:29:59;4.83;;;1.57;;
20966;SDS011;10642;50.682;18.510;2022-10-20T14:32:29;5.77;;;1.77;;
20966;SDS011;10642;50.682;18.510;2022-10-20T14:35:00;6.07;;;1.87;;
20966;SDS011;10642;50.682;18.510;2022-10-20T14:37:38;5.93;;;3.27;;
20966;SDS011;10642;50.682;18.510;2022-10-20T14:40:07;7.33;;;1.83;;
20966;SDS011;10642;50.682;18.510;2022-10-20T14:42:43;5.57;;;2.03;;
20966;SDS011;10642;50.682;18.510;2022-10-20T14:45:21;4.07;;;1.57;;
20966;SDS011;10642;50.682;18.510;2022-10-20T14:47:48;4.63;;;1.80;;
20966;SDS011;10642;50.682;18.510;2022-10-20T14:50:24;8.37;;;2.37;;
20966;SDS011;10642;50.682;18.510;2022-10-20T14:52:52;7.50;;;2.77;;
20966;SDS011;10642;50.682;18.510;2022-10-20T14:57:52;9.47;;;2.87;;
20966;SDS011;10642;50.682;18.510;2022-10-20T15:00:24;7.10;;;2.53;;
20966;SDS011;10642;50.682;18.510;2022-10-20T15:02:51;5.17;;;2.33;;
20966;SDS011;10642;50.682;18.510;2022-10-20T15:07:52;18.37;;;5.47;;
20966;SDS011;10642;50.682;18.510;2022-10-20T15:10:21;30.30;;;8.83;;
20966;SDS011;10642;50.682;18.510;2022-10-20T15:12:50;32.53;;;8.57;;
20966;SDS011;10642;50.682;18.510;2022-10-20T15:15:23;48.40;;;10.57;;
20966;SDS011;10642;50.682;18.510;2022-10-20T15:17:51;36.57;;;10.47;;
20966;SDS011;10642;50.682;18.510;2022-10-20T15:22:51;19.53;;;9.07;;
20966;SDS011;10642;50.682;18.510;2022-10-20T15:25:21;25.17;;;11.23;;
20966;SDS011;10642;50.682;18.510;2022-10-20T15:27:48;12.67;;;4.33;;
20966;SDS011;10642;50.682;18.510;2022-10-20T15:30:15;13.50;;;6.13;;
20966;SDS011;10642;50.682;18.510;2022-10-20T15:32:43;23.83;;;12.27;;
20966;SDS011;10642;50.682;18.510;2022-10-20T15:35:10;28.77;;;13.80;;
20966;SDS011;10642;50.682;18.510;2022-10-20T15:37:38;22.67;;;11.17;;
20966;SDS011;10642;50.682;18.510;2022-10-20T15:40:05;22.13;;;9.90;;
20966;SDS011;10642;50.682;18.510;2022-10-20T15:42:31;15.70;;;6.90;;
20966;SDS011;10642;50.682;18.510;2022-10-20T15:44:59;10.97;;;5.87;;
20966;SDS011;10642;50.682;18.510;2022-10-20T15:47:26;9.27;;;3.77;;
20966;SDS011;10642;50.682;18.510;2022-10-20T15:49:53;8.10;;;2.73;;
20966;SDS011;10642;50.682;18.510;2022-10-20T15:52:20;10.40;;;4.30;;
20966;SDS011;10642;50.682;18.510;2022-10-20T15:54:47;19.23;;;5.73;;
20966;SDS011;10642;50.682;18.510;2022-10-20T15:57:14;44.07;;;14.30;;
20966;SDS011;10642;50.682;18.510;2022-10-20T15:59:41;44.17;;;15.00;;
20966;SDS011;10642;50.682;18.510;2022-10-20T16:02:10;33.37;;;13.53;;
20966;SDS011;10642;50.682;18.510;2022-10-20T16:04:37;72.47;;;34.53;;
20966;SDS011;10642;50.682;18.510;2022-10-20T16:07:04;95.20;;;49.53;;
20966;SDS011;10642;50.682;18.510;2022-10-20T16:09:31;85.57;;;42.07;;
20966;SDS011;10642;50.682;18.510;2022-10-20T16:11:58;185.83;;;77.17;;
20966;SDS011;10642;50.682;18.510;2022-10-20T16:14:25;81.13;;;37.23;;
20966;SDS011;10642;50.682;18.510;2022-10-20T16:16:51;110.43;;;53.83;;
20966;SDS011;10642;50.682;18.510;2022-10-20T16:19:19;45.33;;;25.83;;
20966;SDS011;10642;50.682;18.510;2022-10-20T16:21:46;94.30;;;41.33;;
20966;SDS011;10642;50.682;18.510;2022-10-20T16:24:13;42.60;;;19.77;;
20966;SDS011;10642;50.682;18.510;2022-10-20T16:26:39;25.13;;;7.00;;
20966;SDS011;10642;50.682;18.510;2022-10-20T16:29:06;22.73;;;5.67;;
20966;SDS011;10642;50.682;18.510;2022-10-20T16:31:33;11.40;;;4.13;;
20966;SDS011;10642;50.682;18.510;2022-10-20T16:34:00;7.50;;;2.57;;
20966;SDS011;10642;50.682;18.510;2022-10-20T16:36:27;4.23;;;1.87;;
20966;SDS011;10642;50.682;18.510;2022-10-20T16:38:55;5.30;;;2.17;;
20966;SDS011;10642;50.682;18.510;2022-10-20T16:41:23;5.30;;;2.53;;
20966;SDS011;10642;50.682;18.510;2022-10-20T16:43:50;8.37;;;3.47;;
20966;SDS011;10642;50.682;18.510;2022-10-20T16:46:23;6.97;;;3.77;;
20966;SDS011;10642;50.682;18.510;2022-10-20T16:48:50;9.80;;;4.47;;
20966;SDS011;10642;50.682;18.510;2022-10-20T16:51:17;12.67;;;5.90;;
20966;SDS011;10642;50.682;18.510;2022-10-20T16:53:44;17.80;;;9.67;;
20966;SDS011;10642;50.682;18.510;2022-10-20T16:56:12;10.07;;;4.40;;